EIN2CJ EGCC-EIDW
Flight info
| Callsign | EIN2CJ |
|---|---|
| Flight time | 0h 35m |
| Altitude | 24000 |
| Route | ASMIM L975 WAL L10 PENIL L28 LELDO/N0431F280 M145 BAGSO BAGSO3R |
| Aircraft | A320/M-SDE3FGHIRWY/LB1 |
Departure
| Time | 2026-05-03 22:19 |
|---|---|
| Airport | Manchester Airport (EGCC) |
Arrival
| Time | 2026-05-03 22:55 |
|---|---|
| Airport | Dublin Airport (EIDW) |
| Time | Latitude | Longitude | Altitude | Speed | Heading |
|---|---|---|---|---|---|
| 2026-05-03 21:48 | 53.36309 | -2.28499 | 254 ft | 0 kts | 225° |
| 2026-05-03 22:08 | 53.36320 | -2.28481 | 226 ft | 4 kts | 225° |
| 2026-05-03 22:08 | 53.36339 | -2.28449 | 258 ft | 4 kts | 223° |
| 2026-05-03 22:08 | 53.36359 | -2.28419 | 253 ft | 4 kts | 216° |
| 2026-05-03 22:08 | 53.36381 | -2.28399 | 252 ft | 4 kts | 181° |
| 2026-05-03 22:09 | 53.36393 | -2.28403 | 252 ft | 0 kts | 134° |
| 2026-05-03 22:11 | 53.36393 | -2.28402 | 252 ft | 1 kts | 133° |
| 2026-05-03 22:12 | 53.36358 | -2.28339 | 252 ft | 9 kts | 135° |
| 2026-05-03 22:12 | 53.36315 | -2.28267 | 252 ft | 8 kts | 135° |
| 2026-05-03 22:12 | 53.36277 | -2.28202 | 251 ft | 7 kts | 135° |
| 2026-05-03 22:12 | 53.36243 | -2.28144 | 251 ft | 7 kts | 134° |
| 2026-05-03 22:13 | 53.36213 | -2.28091 | 251 ft | 6 kts | 133° |
| 2026-05-03 22:13 | 53.36157 | -2.27999 | 250 ft | 17 kts | 135° |
| 2026-05-03 22:13 | 53.36085 | -2.27877 | 249 ft | 13 kts | 135° |
| 2026-05-03 22:13 | 53.36001 | -2.27831 | 249 ft | 12 kts | 182° |
| 2026-05-03 22:14 | 53.35923 | -2.27844 | 250 ft | 10 kts | 186° |
| 2026-05-03 22:14 | 53.35857 | -2.27855 | 250 ft | 9 kts | 186° |
| 2026-05-03 22:14 | 53.35772 | -2.27870 | 250 ft | 17 kts | 186° |
| 2026-05-03 22:14 | 53.35638 | -2.27898 | 251 ft | 19 kts | 201° |
| 2026-05-03 22:15 | 53.35556 | -2.28040 | 253 ft | 16 kts | 230° |
| 2026-05-03 22:15 | 53.35475 | -2.28137 | 253 ft | 13 kts | 203° |
| 2026-05-03 22:15 | 53.35377 | -2.28169 | 254 ft | 17 kts | 186° |
| 2026-05-03 22:15 | 53.35250 | -2.28268 | 255 ft | 22 kts | 225° |
| 2026-05-03 22:16 | 53.35157 | -2.28454 | 257 ft | 20 kts | 232° |
| 2026-05-03 22:16 | 53.35079 | -2.28620 | 259 ft | 17 kts | 232° |
| 2026-05-03 22:16 | 53.35009 | -2.28753 | 260 ft | 14 kts | 227° |
| 2026-05-03 22:16 | 53.34947 | -2.28860 | 262 ft | 12 kts | 225° |
| 2026-05-03 22:17 | 53.34895 | -2.28948 | 263 ft | 11 kts | 226° |
| 2026-05-03 22:17 | 53.34831 | -2.29065 | 264 ft | 16 kts | 229° |
| 2026-05-03 22:17 | 53.34746 | -2.29235 | 266 ft | 22 kts | 231° |
| 2026-05-03 22:17 | 53.34618 | -2.29342 | 269 ft | 20 kts | 176° |
| 2026-05-03 22:18 | 53.34551 | -2.29288 | 271 ft | 8 kts | 126° |
| 2026-05-03 22:18 | 53.34546 | -2.29207 | 270 ft | 7 kts | 57° |
| 2026-05-03 22:18 | 53.34590 | -2.29120 | 267 ft | 15 kts | 49° |
| 2026-05-03 22:18 | 53.34758 | -2.28771 | 265 ft | 73 kts | 51° |
| 2026-05-03 22:19 | 53.35219 | -2.27819 | 253 ft | 135 kts | 51° |
| 2026-05-03 22:19 | 53.35867 | -2.26481 | 637 ft | 152 kts | 51° |
| 2026-05-03 22:19 | 53.36526 | -2.25118 | 1413 ft | 151 kts | 51° |
| 2026-05-03 22:19 | 53.37205 | -2.23715 | 1910 ft | 167 kts | 51° |
| 2026-05-03 22:20 | 53.37988 | -2.22103 | 2261 ft | 189 kts | 50° |
| 2026-05-03 22:20 | 53.39093 | -2.20680 | 2608 ft | 217 kts | 25° |
| 2026-05-03 22:20 | 53.40672 | -2.20292 | 3066 ft | 246 kts | 354° |
| 2026-05-03 22:20 | 53.42273 | -2.21509 | 3837 ft | 264 kts | 319° |
| 2026-05-03 22:21 | 53.43262 | -2.24130 | 4650 ft | 274 kts | 289° |
| 2026-05-03 22:21 | 53.43450 | -2.27269 | 5009 ft | 274 kts | 260° |
| 2026-05-03 22:21 | 53.42761 | -2.30240 | 5959 ft | 274 kts | 242° |
| 2026-05-03 22:21 | 53.41842 | -2.33049 | 6947 ft | 275 kts | 240° |
| 2026-05-03 22:22 | 53.40900 | -2.35844 | 7900 ft | 276 kts | 240° |
| 2026-05-03 22:22 | 53.39948 | -2.38652 | 8809 ft | 279 kts | 240° |
| 2026-05-03 22:22 | 53.39050 | -2.41544 | 9721 ft | 282 kts | 251° |
| 2026-05-03 22:22 | 53.38789 | -2.44835 | 10277 ft | 297 kts | 275° |
| 2026-05-03 22:23 | 53.39323 | -2.48320 | 10536 ft | 321 kts | 289° |
| 2026-05-03 22:23 | 53.40128 | -2.51939 | 10917 ft | 338 kts | 290° |
| 2026-05-03 22:23 | 53.40985 | -2.55652 | 11614 ft | 344 kts | 290° |
| 2026-05-03 22:23 | 53.41850 | -2.59428 | 12346 ft | 349 kts | 290° |
| 2026-05-03 22:24 | 53.42707 | -2.63277 | 13076 ft | 354 kts | 290° |
| 2026-05-03 22:24 | 53.43545 | -2.67190 | 13834 ft | 357 kts | 289° |
| 2026-05-03 22:24 | 53.44368 | -2.71151 | 14479 ft | 361 kts | 289° |
| 2026-05-03 22:24 | 53.45175 | -2.75101 | 15126 ft | 365 kts | 288° |
| 2026-05-03 22:25 | 53.46005 | -2.79205 | 15801 ft | 368 kts | 288° |
| 2026-05-03 22:25 | 53.46819 | -2.83233 | 16426 ft | 372 kts | 289° |
| 2026-05-03 22:25 | 53.47657 | -2.87363 | 17074 ft | 375 kts | 289° |
| 2026-05-03 22:25 | 53.48506 | -2.91535 | 17719 ft | 379 kts | 289° |
| 2026-05-03 22:26 | 53.49374 | -2.95795 | 18356 ft | 383 kts | 289° |
| 2026-05-03 22:26 | 53.50228 | -2.99990 | 18893 ft | 386 kts | 289° |
| 2026-05-03 22:26 | 53.51102 | -3.04289 | 19447 ft | 390 kts | 289° |
| 2026-05-03 22:26 | 53.51980 | -3.08616 | 20030 ft | 393 kts | 288° |
| 2026-05-03 22:27 | 53.52863 | -3.12978 | 20579 ft | 397 kts | 289° |
| 2026-05-03 22:27 | 53.53764 | -3.17437 | 21119 ft | 400 kts | 289° |
| 2026-05-03 22:27 | 53.54650 | -3.21840 | 21646 ft | 404 kts | 289° |
| 2026-05-03 22:27 | 53.55559 | -3.26386 | 22176 ft | 407 kts | 289° |
| 2026-05-03 22:28 | 53.56449 | -3.30864 | 22682 ft | 410 kts | 289° |
| 2026-05-03 22:28 | 53.57369 | -3.35483 | 23205 ft | 413 kts | 288° |
| 2026-05-03 22:28 | 53.58287 | -3.40089 | 23669 ft | 416 kts | 288° |
| 2026-05-03 22:28 | 53.59196 | -3.44662 | 23920 ft | 418 kts | 288° |
| 2026-05-03 22:29 | 53.60120 | -3.49325 | 23981 ft | 422 kts | 288° |
| 2026-05-03 22:29 | 53.61048 | -3.54015 | 23986 ft | 423 kts | 288° |
| 2026-05-03 22:29 | 53.61977 | -3.58727 | 23986 ft | 424 kts | 288° |
| 2026-05-03 22:29 | 53.62906 | -3.63443 | 23999 ft | 424 kts | 288° |
| 2026-05-03 22:30 | 53.63833 | -3.68162 | 23987 ft | 425 kts | 288° |
| 2026-05-03 22:30 | 53.64759 | -3.72910 | 23988 ft | 426 kts | 288° |
| 2026-05-03 22:30 | 53.65683 | -3.77660 | 23991 ft | 426 kts | 288° |
| 2026-05-03 22:30 | 53.66605 | -3.82402 | 23989 ft | 425 kts | 288° |
| 2026-05-03 22:31 | 53.67527 | -3.87145 | 23993 ft | 426 kts | 288° |
| 2026-05-03 22:31 | 53.68450 | -3.91891 | 23996 ft | 425 kts | 288° |
| 2026-05-03 22:31 | 53.69369 | -3.96634 | 24005 ft | 425 kts | 288° |
| 2026-05-03 22:31 | 53.70281 | -4.01374 | 24001 ft | 424 kts | 288° |
| 2026-05-03 22:32 | 53.71176 | -4.06121 | 24007 ft | 424 kts | 285° |
| 2026-05-03 22:32 | 53.71739 | -4.11001 | 24003 ft | 423 kts | 276° |
| 2026-05-03 22:32 | 53.71945 | -4.15955 | 24000 ft | 423 kts | 274° |
| 2026-05-03 22:32 | 53.72127 | -4.20911 | 23988 ft | 423 kts | 274° |
| 2026-05-03 22:33 | 53.72251 | -4.24195 | 23980 ft | 423 kts | 274° |
| 2026-05-03 22:33 | 53.72440 | -4.29161 | 23976 ft | 424 kts | 274° |
| 2026-05-03 22:33 | 53.72627 | -4.34125 | 23975 ft | 424 kts | 274° |
| 2026-05-03 22:33 | 53.72869 | -4.40719 | 23973 ft | 425 kts | 274° |
| 2026-05-03 22:34 | 53.73047 | -4.45697 | 23974 ft | 425 kts | 274° |
| 2026-05-03 22:34 | 53.73168 | -4.49059 | 23975 ft | 425 kts | 274° |
| 2026-05-03 22:34 | 53.73345 | -4.54038 | 23977 ft | 425 kts | 274° |
| 2026-05-03 22:34 | 53.73521 | -4.59018 | 23981 ft | 425 kts | 274° |
| 2026-05-03 22:35 | 53.73693 | -4.63994 | 23966 ft | 425 kts | 274° |
| 2026-05-03 22:35 | 53.73863 | -4.68954 | 23726 ft | 421 kts | 273° |
| 2026-05-03 22:35 | 53.74028 | -4.73883 | 23467 ft | 420 kts | 274° |
| 2026-05-03 22:35 | 53.74185 | -4.78816 | 23204 ft | 418 kts | 274° |
| 2026-05-03 22:36 | 53.74339 | -4.83705 | 22929 ft | 417 kts | 273° |
| 2026-05-03 22:36 | 53.74496 | -4.88585 | 22645 ft | 416 kts | 274° |
| 2026-05-03 22:36 | 53.74655 | -4.93399 | 22378 ft | 414 kts | 274° |
| 2026-05-03 22:36 | 53.74816 | -4.98246 | 22109 ft | 412 kts | 274° |
| 2026-05-03 22:37 | 53.74973 | -5.03079 | 21843 ft | 410 kts | 274° |
| 2026-05-03 22:37 | 53.75124 | -5.07873 | 21577 ft | 409 kts | 274° |
| 2026-05-03 22:37 | 53.75106 | -5.12641 | 21155 ft | 403 kts | 265° |
| 2026-05-03 22:37 | 53.74619 | -5.17286 | 20645 ft | 400 kts | 255° |
| 2026-05-03 22:38 | 53.73756 | -5.21736 | 20064 ft | 399 kts | 252° |
| 2026-05-03 22:38 | 53.72877 | -5.26174 | 19517 ft | 396 kts | 256° |
| 2026-05-03 22:38 | 53.72251 | -5.30687 | 18982 ft | 394 kts | 259° |
| 2026-05-03 22:38 | 53.71670 | -5.35197 | 18457 ft | 392 kts | 259° |
| 2026-05-03 22:39 | 53.71112 | -5.39680 | 17937 ft | 388 kts | 259° |
| 2026-05-03 22:39 | 53.70562 | -5.44117 | 17400 ft | 385 kts | 259° |
| 2026-05-03 22:39 | 53.70010 | -5.48517 | 16850 ft | 382 kts | 259° |
| 2026-05-03 22:39 | 53.69454 | -5.52894 | 16308 ft | 380 kts | 259° |
| 2026-05-03 22:40 | 53.68896 | -5.57240 | 15802 ft | 377 kts | 259° |
| 2026-05-03 22:40 | 53.68341 | -5.61534 | 15326 ft | 373 kts | 259° |
| 2026-05-03 22:40 | 53.67788 | -5.65803 | 14808 ft | 371 kts | 259° |
| 2026-05-03 22:40 | 53.67237 | -5.70053 | 14301 ft | 370 kts | 259° |
| 2026-05-03 22:41 | 53.66687 | -5.74271 | 13820 ft | 367 kts | 258° |
| 2026-05-03 22:41 | 53.66137 | -5.78453 | 13300 ft | 364 kts | 258° |
| 2026-05-03 22:41 | 53.65591 | -5.82597 | 12756 ft | 361 kts | 258° |
| 2026-05-03 22:41 | 53.65051 | -5.86713 | 12194 ft | 359 kts | 259° |
| 2026-05-03 22:42 | 53.64512 | -5.90809 | 11681 ft | 356 kts | 259° |
| 2026-05-03 22:42 | 53.63975 | -5.94878 | 11157 ft | 353 kts | 258° |
| 2026-05-03 22:42 | 53.63448 | -5.98850 | 10656 ft | 350 kts | 258° |
| 2026-05-03 22:42 | 53.62916 | -6.02835 | 10126 ft | 348 kts | 258° |
| 2026-05-03 22:43 | 53.62388 | -6.06772 | 9867 ft | 337 kts | 258° |
| 2026-05-03 22:43 | 53.61888 | -6.10485 | 9728 ft | 312 kts | 258° |
| 2026-05-03 22:43 | 53.61426 | -6.13909 | 9573 ft | 289 kts | 258° |
| 2026-05-03 22:43 | 53.60991 | -6.17138 | 9076 ft | 280 kts | 258° |
| 2026-05-03 22:44 | 53.60560 | -6.20344 | 8492 ft | 280 kts | 258° |
| 2026-05-03 22:44 | 53.60132 | -6.23526 | 8108 ft | 280 kts | 258° |
| 2026-05-03 22:44 | 53.59701 | -6.26709 | 7740 ft | 277 kts | 258° |
| 2026-05-03 22:44 | 53.59272 | -6.29861 | 7382 ft | 275 kts | 258° |
| 2026-05-03 22:45 | 53.58844 | -6.32996 | 6997 ft | 274 kts | 258° |
| 2026-05-03 22:45 | 53.58420 | -6.36115 | 6623 ft | 272 kts | 258° |
| 2026-05-03 22:45 | 53.58000 | -6.39195 | 6368 ft | 266 kts | 258° |
| 2026-05-03 22:45 | 53.57590 | -6.42197 | 6063 ft | 261 kts | 258° |
| 2026-05-03 22:46 | 53.57185 | -6.45157 | 5700 ft | 259 kts | 258° |
| 2026-05-03 22:46 | 53.56779 | -6.48105 | 5325 ft | 258 kts | 258° |
| 2026-05-03 22:46 | 53.56372 | -6.51035 | 4956 ft | 257 kts | 258° |
| 2026-05-03 22:46 | 53.55970 | -6.53932 | 4566 ft | 256 kts | 258° |
| 2026-05-03 22:47 | 53.55569 | -6.56829 | 4322 ft | 252 kts | 258° |
| 2026-05-03 22:47 | 53.55175 | -6.59657 | 4175 ft | 246 kts | 258° |
| 2026-05-03 22:47 | 53.54675 | -6.62392 | 4000 ft | 246 kts | 245° |
| 2026-05-03 22:47 | 53.53706 | -6.64749 | 3988 ft | 247 kts | 225° |
| 2026-05-03 22:48 | 53.52338 | -6.66468 | 3992 ft | 246 kts | 205° |
| 2026-05-03 22:48 | 53.50731 | -6.67359 | 3992 ft | 243 kts | 186° |
| 2026-05-03 22:48 | 53.49056 | -6.67628 | 3990 ft | 239 kts | 182° |
| 2026-05-03 22:48 | 53.47464 | -6.67642 | 3980 ft | 219 kts | 161° |
| 2026-05-03 22:49 | 53.46245 | -6.66457 | 3992 ft | 193 kts | 126° |
| 2026-05-03 22:49 | 53.45658 | -6.64548 | 4007 ft | 182 kts | 97° |
| 2026-05-03 22:49 | 53.45529 | -6.62461 | 3991 ft | 179 kts | 91° |
| 2026-05-03 22:49 | 53.45427 | -6.60374 | 3968 ft | 179 kts | 91° |
| 2026-05-03 22:50 | 53.45322 | -6.58300 | 3816 ft | 176 kts | 91° |
| 2026-05-03 22:50 | 53.45218 | -6.56294 | 3611 ft | 170 kts | 91° |
| 2026-05-03 22:50 | 53.45116 | -6.54335 | 3397 ft | 168 kts | 91° |
| 2026-05-03 22:50 | 53.45014 | -6.52389 | 3181 ft | 167 kts | 91° |
| 2026-05-03 22:51 | 53.44913 | -6.50462 | 2940 ft | 164 kts | 91° |
| 2026-05-03 22:51 | 53.44814 | -6.48579 | 2724 ft | 161 kts | 91° |
| 2026-05-03 22:51 | 53.44716 | -6.46728 | 2506 ft | 157 kts | 91° |
| 2026-05-03 22:51 | 53.44622 | -6.44972 | 2290 ft | 146 kts | 91° |
| 2026-05-03 22:52 | 53.44534 | -6.43307 | 2104 ft | 142 kts | 92° |
| 2026-05-03 22:52 | 53.44447 | -6.41666 | 1914 ft | 141 kts | 92° |
| 2026-05-03 22:52 | 53.44361 | -6.40041 | 1720 ft | 139 kts | 91° |
| 2026-05-03 22:52 | 53.44275 | -6.38427 | 1528 ft | 139 kts | 91° |
| 2026-05-03 22:53 | 53.44188 | -6.36812 | 1328 ft | 139 kts | 91° |
| 2026-05-03 22:53 | 53.44100 | -6.35180 | 1126 ft | 142 kts | 92° |
| 2026-05-03 22:53 | 53.44011 | -6.33523 | 933 ft | 141 kts | 93° |
| 2026-05-03 22:53 | 53.43922 | -6.31883 | 743 ft | 140 kts | 91° |
| 2026-05-03 22:54 | 53.43834 | -6.30259 | 543 ft | 140 kts | 91° |
| 2026-05-03 22:54 | 53.43745 | -6.28624 | 376 ft | 141 kts | 92° |
| 2026-05-03 22:54 | 53.43659 | -6.27013 | 230 ft | 130 kts | 94° |
| 2026-05-03 22:54 | 53.43595 | -6.25794 | 226 ft | 81 kts | 95° |
| 2026-05-03 22:55 | 53.43520 | -6.25189 | 226 ft | 29 kts | 128° |
| 2026-05-03 22:55 | 53.43459 | -6.25021 | 225 ft | 13 kts | 117° |
| 2026-05-03 22:55 | 53.43410 | -6.24883 | 225 ft | 14 kts | 121° |
| 2026-05-03 22:55 | 53.43370 | -6.24766 | 225 ft | 11 kts | 117° |
| 2026-05-03 22:56 | 53.43357 | -6.24637 | 225 ft | 12 kts | 92° |
| 2026-05-03 22:56 | 53.43352 | -6.24504 | 225 ft | 6 kts | 94° |
| 2026-05-03 22:56 | 53.43347 | -6.24435 | 225 ft | 5 kts | 102° |
| 2026-05-03 22:56 | 53.43327 | -6.24403 | 225 ft | 4 kts | 161° |
| 2026-05-03 22:57 | 53.43297 | -6.24402 | 225 ft | 8 kts | 186° |
| 2026-05-03 22:57 | 53.43224 | -6.24415 | 225 ft | 11 kts | 186° |
| 2026-05-03 22:57 | 53.43191 | -6.24502 | 225 ft | 9 kts | 278° |
| 2026-05-03 22:57 | 53.43197 | -6.24604 | 225 ft | 8 kts | 275° |
| 2026-05-03 22:58 | 53.43215 | -6.24687 | 225 ft | 7 kts | 303° |
| 2026-05-03 22:58 | 53.43227 | -6.24761 | 225 ft | 6 kts | 280° |
| 2026-05-03 22:58 | 53.43249 | -6.24808 | 225 ft | 5 kts | 338° |
| 2026-05-03 22:58 | 53.43277 | -6.24802 | 225 ft | 4 kts | 8° |
| 2026-05-03 22:59 | 53.43289 | -6.24801 | 225 ft | 0 kts | 7° |